TimeCDT,TemperatureF,Dew PointF,Humidity,Sea Level PressureIn,VisibilityMPH,Wind Direction,Wind SpeedMPH,Gust SpeedMPH,PrecipitationIn,Events,Conditions,WindDirDegrees,DateUTC
12:53 AM,79.0,72.0,79,29.74,10.0,Calm,Calm,-,N/A,,Clear,0,2013-06-30 05:53:00
1:53 AM,78.1,71.1,79,29.73,10.0,Calm,Calm,-,N/A,,Clear,0,2013-06-30 06:53:00
2:53 AM,77.0,72.0,84,29.71,10.0,Calm,Calm,-,N/A,,Clear,0,2013-06-30 07:53:00
3:53 AM,75.0,71.1,87,29.71,10.0,NNW,3.5,-,N/A,,Partly Cloudy,340,2013-06-30 08:53:00
4:53 AM,73.9,71.1,91,29.73,9.0,Calm,Calm,-,N/A,,Scattered Clouds,0,2013-06-30 09:53:00
5:53 AM,73.9,71.1,91,29.73,8.0,Calm,Calm,-,N/A,,Clear,0,2013-06-30 10:53:00
6:53 AM,75.0,71.1,87,29.74,9.0,Calm,Calm,-,N/A,,Partly Cloudy,0,2013-06-30 11:53:00
7:53 AM,77.0,71.1,82,29.75,10.0,Calm,Calm,-,N/A,,Clear,0,2013-06-30 12:53:00
8:53 AM,79.0,71.1,77,29.76,10.0,Calm,Calm,-,N/A,,Clear,0,2013-06-30 13:53:00
9:53 AM,84.0,69.1,61,29.75,10.0,NW,3.5,-,N/A,,Clear,310,2013-06-30 14:53:00
10:53 AM,88.0,64.9,46,29.76,10.0,NNW,4.6,-,N/A,,Clear,330,2013-06-30 15:53:00
11:53 AM,90.0,64.9,43,29.75,10.0,NW,9.2,-,N/A,,Clear,320,2013-06-30 16:53:00
12:53 PM,90.0,66.0,45,29.74,10.0,NNW,9.2,-,N/A,,Clear,330,2013-06-30 17:53:00
1:53 PM,93.0,57.0,30,29.73,10.0,North,4.6,-,N/A,,Clear,360,2013-06-30 18:53:00
2:53 PM,93.0,59.0,32,29.72,10.0,Calm,Calm,-,N/A,,Scattered Clouds,0,2013-06-30 19:53:00
3:53 PM,91.0,63.0,39,29.72,10.0,SW,6.9,-,N/A,,Scattered Clouds,220,2013-06-30 20:53:00
4:53 PM,90.0,64.9,43,29.71,10.0,WSW,5.8,-,N/A,,Scattered Clouds,240,2013-06-30 21:53:00
5:53 PM,88.0,64.9,46,29.72,10.0,Calm,Calm,-,N/A,,Overcast,0,2013-06-30 22:53:00
6:53 PM,88.0,66.9,49,29.72,10.0,WNW,4.6,-,N/A,,Overcast,290,2013-06-30 23:53:00
7:53 PM,84.9,63.0,48,29.74,10.0,North,10.4,-,N/A,,Scattered Clouds,350,2013-07-01 00:53:00
8:53 PM,82.0,64.0,54,29.75,10.0,North,8.1,-,N/A,,Mostly Cloudy,350,2013-07-01 01:53:00
9:53 PM,81.0,64.9,58,29.78,10.0,North,3.5,-,N/A,,Clear,360,2013-07-01 02:53:00
10:53 PM,78.1,66.0,66,29.78,10.0,NNW,8.1,-,N/A,,Clear,340,2013-07-01 03:53:00
11:53 PM,77.0,66.9,71,29.79,10.0,NNW,6.9,-,N/A,,Clear,340,2013-07-01 04:53:00